< < Back
Terminal Aerodrome Forecast


Current Version              Previous Versions:   1  2  3  4  5  6  7  8  9  

Terminal Aerodrome Forecast

126
FTUS44 KBMX 270520
TAFMGM
TAF
KMGM 270520Z 2706/2806 VRB03KT P6SM BKN250
     FM271500 13004KT P6SM SCT035 SCT250
     FM271900 25007KT P6SM VCTS BKN050CB
     FM280200 03005KT P6SM BKN250=

Latest METAR

644
SAUS80 KWBC 271100 RRA
MTRMGM
METAR KMGM 271053Z AUTO 00000KT 6SM BR CLR 22/21 A3009 RMK AO2 SLP187
T02220206


USA.gov is the U.S. government's official web portal to all federal, state and local government web resources and services.